Time;durP1;ratioP1;P1;durP2;ratioP2;P2;SDS_P1;SDS_P2;PMS_P1;PMS_P2;Temp;Humidity;BMP_temperature;BMP_pressure;BME280_temperature;BME280_humidity;BME280_pressure;Samples;Min_cycle;Max_cycle;Signal;HPM_P1;HPM_P2
2023/08/13 00:02:13;;;;;;;3.55;2.10;;;;;;;21.76;81.38;99401.97;7219151;40;21166;31
2023/08/13 00:07:45;;;;;;;2.33;1.77;;;;;;;21.64;82.17;99393.69;7213988;40;20348;31
2023/08/13 00:13:16;;;;;;;2.97;1.87;;;;;;;21.56;83.32;99400.34;7156124;40;20343;31
2023/08/13 00:18:48;;;;;;;3.17;1.95;;;;;;;21.35;83.45;99395.34;7178633;40;20262;31
2023/08/13 00:24:21;;;;;;;7.70;1.80;;;;;;;21.29;82.94;99388.03;7207917;40;20332;31
2023/08/13 00:29:40;;;;;;;3.62;1.60;;;;;;;21.34;82.59;99395.56;7193769;40;20251;31
2023/08/13 00:34:59;;;;;;;4.47;2.10;;;;;;;21.25;83.46;99389.56;7211793;40;20408;31
2023/08/13 00:40:35;;;;;;;2.60;1.87;;;;;;;21.17;83.22;99398.13;7243424;40;20258;31
2023/08/13 00:46:07;;;;;;;3.45;2.10;;;;;;;21.13;83.14;99403.22;7235126;40;20250;31
2023/08/13 00:51:39;;;;;;;3.64;2.06;;;;;;;21.08;82.87;99391.25;7229489;39;20272;31
2023/08/13 00:57:12;;;;;;;5.20;2.17;;;;;;;20.83;84.10;99401.44;7234017;40;20321;31
2023/08/13 01:02:44;;;;;;;5.53;2.10;;;;;;;20.73;83.56;99390.19;7151654;40;20316;31
2023/08/13 01:08:20;;;;;;;4.00;2.40;;;;;;;20.87;84.63;99392.56;7148395;40;20315;31
2023/08/13 01:19:00;;;;;;;3.35;2.30;;;;;;;20.86;83.18;99390.87;7243996;40;20268;31
2023/08/13 01:24:48;;;;;;;3.17;2.00;;;;;;;20.83;83.11;99388.59;7253306;40;20277;31
2023/08/13 01:35:27;;;;;;;4.57;2.15;;;;;;;20.72;85.00;99388.50;7139158;40;20472;31
2023/08/13 01:46:08;;;;;;;3.35;2.00;;;;;;;20.81;84.12;99387.97;7238986;39;20294;31
2023/08/13 01:56:32;;;;;;;2.62;2.36;;;;;;;20.64;83.31;99375.94;7283742;40;21192;31
2023/08/13 02:07:12;;;;;;;4.55;2.50;;;;;;;20.54;83.69;99403.00;7277471;40;20284;31
2023/08/13 02:17:51;;;;;;;4.30;2.40;;;;;;;20.60;84.40;99404.84;7251169;40;20382;31
2023/08/13 02:28:31;;;;;;;3.90;2.50;;;;;;;20.71;84.22;99387.69;7249851;39;20264;31
2023/08/13 02:33:48;;;;;;;3.55;2.40;;;;;;;20.67;84.66;99391.91;7296264;39;20271;31
2023/08/13 02:39:05;;;;;;;5.80;2.60;;;;;;;20.63;84.78;99387.97;7267194;40;20256;31
2023/08/13 02:44:36;;;;;;;3.65;2.50;;;;;;;20.51;85.09;99387.88;7256239;40;20248;31
2023/08/13 02:49:53;;;;;;;9.60;2.25;;;;;;;20.42;85.53;99388.38;7263308;40;20327;31
2023/08/13 02:55:25;;;;;;;3.70;2.30;;;;;;;20.40;86.78;99391.37;7255439;40;20267;31
2023/08/13 03:00:59;;;;;;;2.65;2.20;;;;;;;20.42;86.45;99394.69;7193082;40;20262;31
2023/08/13 03:06:30;;;;;;;4.87;2.10;;;;;;;20.51;86.80;99395.25;7240126;40;20252;31
2023/08/13 03:11:47;;;;;;;4.60;2.25;;;;;;;20.57;86.30;99388.88;7082361;39;21273;31
2023/08/13 03:17:20;;;;;;;6.70;2.17;;;;;;;20.56;86.68;99379.81;7231915;40;20260;31
2023/08/13 03:22:52;;;;;;;3.50;2.22;;;;;;;20.65;85.29;99378.47;7255659;40;20398;31
2023/08/13 03:28:09;;;;;;;3.15;2.08;;;;;;;20.58;85.85;99376.84;7233694;40;20324;31
2023/08/13 03:33:45;;;;;;;3.35;2.30;;;;;;;20.41;86.80;99386.69;7250470;40;20252;31
2023/08/13 03:39:02;;;;;;;3.15;1.95;;;;;;;20.40;86.23;99376.84;7255758;40;20261;31
2023/08/13 03:44:34;;;;;;;3.92;2.15;;;;;;;20.40;85.96;99371.38;7254778;40;20331;31
2023/08/13 03:50:07;;;;;;;5.78;2.20;;;;;;;20.42;87.29;99383.75;7236209;40;20343;31
2023/08/13 03:55:24;;;;;;;3.92;2.10;;;;;;;20.43;86.46;99376.37;7196955;40;20335;31
2023/08/13 04:00:44;;;;;;;3.00;1.70;;;;;;;20.43;86.33;99384.59;7200304;40;20293;31
2023/08/13 04:06:17;;;;;;;2.60;2.05;;;;;;;20.39;86.07;99378.72;7210411;40;20254;31
2023/08/13 04:11:34;;;;;;;2.50;1.80;;;;;;;20.40;86.61;99385.91;7216775;40;20250;31
2023/08/13 04:16:54;;;;;;;4.65;1.90;;;;;;;20.44;87.14;99381.63;7214724;40;20250;31
2023/08/13 04:22:27;;;;;;;6.35;2.40;;;;;;;20.48;87.81;99384.75;7242132;40;20272;31
2023/08/13 04:27:45;;;;;;;3.63;1.87;;;;;;;20.58;87.53;99387.78;7216448;40;21589;31
2023/08/13 04:33:05;;;;;;;3.70;2.10;;;;;;;20.57;86.74;99386.97;7258060;40;20310;31
2023/08/13 04:38:38;;;;;;;2.35;1.90;;;;;;;20.60;88.07;99382.94;7254769;40;20249;31
2023/08/13 04:44:13;;;;;;;2.83;2.00;;;;;;;20.63;87.29;99394.28;7206405;40;20273;31
2023/08/13 04:49:31;;;;;;;4.00;2.03;;;;;;;20.60;88.82;99391.16;7233038;40;20272;31
2023/08/13 04:55:03;;;;;;;3.83;2.10;;;;;;;20.64;88.09;99389.63;7233756;40;20261;31
2023/08/13 05:00:21;;;;;;;3.50;2.00;;;;;;;20.70;87.98;99388.75;7255087;40;20261;31
2023/08/13 05:05:38;;;;;;;2.20;2.00;;;;;;;20.71;88.20;99395.91;7214491;40;20268;31
2023/08/13 05:11:10;;;;;;;6.95;2.50;;;;;;;20.61;89.12;99393.69;7202242;40;20280;31
2023/08/13 05:16:28;;;;;;;4.70;2.33;;;;;;;20.63;88.58;99385.22;7215028;40;20350;31
2023/08/13 05:21:45;;;;;;;4.90;2.25;;;;;;;20.71;88.84;99395.06;7269041;39;20252;31
2023/08/13 05:27:20;;;;;;;5.55;2.30;;;;;;;20.71;88.99;99386.84;7263149;40;20249;31
2023/08/13 05:32:55;;;;;;;3.47;2.20;;;;;;;20.78;88.91;99390.34;7260308;39;20251;31
2023/08/13 05:38:13;;;;;;;4.00;2.37;;;;;;;20.93;88.90;99393.56;7263901;40;20261;31
2023/08/13 05:43:48;;;;;;;2.53;2.07;;;;;;;20.95;89.59;99394.13;7244045;40;20309;31
2023/08/13 05:49:06;;;;;;;4.15;2.20;;;;;;;21.01;88.76;99382.28;7233483;40;20261;31
2023/08/13 05:54:37;;;;;;;4.15;2.10;;;;;;;21.06;89.38;99393.41;7193757;40;20254;31
2023/08/13 06:00:23;;;;;;;2.80;2.00;;;;;;;21.08;89.47;99393.97;7249940;39;22215;31
2023/08/13 06:10:45;;;;;;;3.53;2.35;;;;;;;21.09;90.22;99392.91;7237735;40;20673;31
2023/08/13 06:16:20;;;;;;;3.23;2.00;;;;;;;21.16;89.82;99395.59;7273043;40;20272;31
2023/08/13 06:26:42;;;;;;;4.50;2.15;;;;;;;21.35;90.37;99389.88;7197005;40;20447;31
2023/08/13 06:37:21;;;;;;;3.62;1.90;;;;;;;21.52;89.57;99396.38;7305122;39;20284;31
2023/08/13 06:47:57;;;;;;;2.10;1.90;;;;;;;21.64;89.16;99403.81;7310521;39;20430;31
2023/08/13 06:53:30;;;;;;;2.85;2.10;;;;;;;21.77;88.50;99400.88;7270289;40;20257;31
2023/08/13 06:58:48;;;;;;;3.37;1.85;;;;;;;21.85;87.59;99403.31;7225319;40;20273;31
2023/08/13 07:04:20;;;;;;;3.10;1.90;;;;;;;21.87;85.78;99403.91;7222164;40;20252;31
2023/08/13 07:09:53;;;;;;;6.23;1.80;;;;;;;21.91;85.31;99385.88;7220739;40;20338;31
2023/08/13 07:15:11;;;;;;;3.12;1.80;;;;;;;22.03;85.43;99378.53;7234254;40;20331;31
2023/08/13 07:20:31;;;;;;;2.70;2.05;;;;;;;22.03;85.73;99386.75;7230115;40;20356;31
2023/08/13 07:26:05;;;;;;;2.28;1.92;;;;;;;22.07;85.46;99393.50;7248584;40;20365;31
2023/08/13 07:31:37;;;;;;;4.15;2.20;;;;;;;22.20;84.86;99409.75;7191012;40;21261;31
2023/08/13 07:37:12;;;;;;;2.72;1.77;;;;;;;22.29;84.28;99415.72;7253846;40;20249;31
2023/08/13 07:42:45;;;;;;;3.25;1.80;;;;;;;22.36;83.33;99410.94;7193118;40;20269;31
2023/08/13 07:48:02;;;;;;;3.20;2.00;;;;;;;22.39;82.85;99403.06;7163459;40;20263;31
2023/08/13 07:53:19;;;;;;;3.60;1.95;;;;;;;22.50;83.07;99417.06;7195909;40;20322;31
2023/08/13 07:58:55;;;;;;;2.92;2.20;;;;;;;22.52;82.50;99417.62;7277316;39;20252;31
2023/08/13 08:04:15;;;;;;;2.35;2.05;;;;;;;22.81;81.49;99411.22;7315162;39;20366;31
2023/08/13 08:09:32;;;;;;;3.04;2.30;;;;;;;23.05;81.56;99404.59;7351140;39;20339;31
2023/08/13 08:15:08;;;;;;;4.25;1.95;;;;;;;23.31;78.49;99401.31;7289565;39;20366;31
2023/08/13 08:20:28;;;;;;;2.65;2.03;;;;;;;23.40;78.89;99409.16;7263328;40;20346;31
2023/08/13 08:25:48;;;;;;;6.13;2.17;;;;;;;23.63;75.39;99398.94;7281362;39;20458;31
2023/08/13 08:31:24;;;;;;;5.35;2.10;;;;;;;23.71;74.79;99389.44;7299528;39;20241;31
2023/08/13 08:36:41;;;;;;;3.22;1.65;;;;;;;23.85;73.54;99396.31;7333520;39;20519;31
2023/08/13 08:47:17;;;;;;;4.13;2.03;;;;;;;23.93;73.49;99398.66;7300706;39;20276;31
2023/08/13 08:52:52;;;;;;;3.48;1.92;;;;;;;23.88;70.56;99397.72;7272451;40;20344;31
2023/08/13 08:58:27;;;;;;;3.85;2.10;;;;;;;23.91;69.90;99400.84;7263302;40;20280;31
2023/08/13 09:04:03;;;;;;;4.65;2.15;;;;;;;24.00;67.81;99399.31;7276054;40;20253;31
2023/08/13 09:09:43;;;;;;;3.55;2.10;;;;;;;24.09;65.63;99391.53;7194915;40;20490;31
2023/08/13 09:15:13;;;;;;;5.25;2.10;;;;;;;24.19;65.18;99389.78;7166214;40;20262;31
2023/08/13 09:20:49;;;;;;;4.90;2.30;;;;;;;24.37;61.82;99383.19;7184715;40;20265;31
2023/08/13 09:26:18;;;;;;;3.97;1.92;;;;;;;24.49;59.17;99378.41;7191943;40;21278;31
2023/08/13 09:31:38;;;;;;;4.40;1.93;;;;;;;24.66;62.28;99379.22;7229258;40;20344;31
2023/08/13 09:37:14;;;;;;;3.00;1.83;;;;;;;24.83;60.60;99378.38;7224011;40;20254;31
2023/08/13 09:42:46;;;;;;;5.53;1.90;;;;;;;24.76;59.80;99381.28;7234648;40;20293;31
2023/08/13 09:48:18;;;;;;;4.66;2.00;;;;;;;24.66;58.08;99378.41;7220894;40;20343;31
2023/08/13 09:53:51;;;;;;;4.23;2.03;;;;;;;24.73;59.88;99376.28;7264769;40;20303;31
2023/08/13 09:59:23;;;;;;;5.18;1.90;;;;;;;24.93;60.23;99384.88;7044457;40;20223;31
2023/08/13 10:04:58;;;;;;;4.20;1.90;;;;;;;25.22;59.63;99384.69;7249544;40;21244;31
2023/08/13 10:10:34;;;;;;;3.93;2.00;;;;;;;25.20;58.60;99373.91;7259772;40;20250;31
2023/08/13 10:16:09;;;;;;;5.04;1.86;;;;;;;25.22;57.86;99381.94;7216716;40;20332;31
2023/08/13 10:21:47;;;;;;;3.58;2.00;;;;;;;25.34;59.24;99380.72;7216747;40;20302;31
2023/08/13 10:27:20;;;;;;;4.63;2.30;;;;;;;25.48;58.30;99375.63;7185751;40;20263;31
2023/08/13 10:33:02;;;;;;;2.78;1.84;;;;;;;25.49;57.30;99363.50;7165879;40;20285;31
2023/08/13 10:38:34;;;;;;;3.98;2.02;;;;;;;25.35;57.36;99373.28;7170396;40;22298;31
2023/08/13 10:49:14;;;;;;;4.28;2.15;;;;;;;25.21;58.72;99380.25;7288751;40;20280;31
2023/08/13 10:59:53;;;;;;;4.93;2.00;;;;;;;25.66;57.74;99371.72;7319940;39;20329;31
2023/08/13 11:10:48;;;;;;;5.53;1.90;;;;;;;25.81;57.20;99366.31;7295938;39;20364;31
2023/08/13 11:21:21;;;;;;;3.10;1.80;;;;;;;26.10;55.86;99366.88;7228647;40;21288;31
2023/08/13 11:26:57;;;;;;;4.70;1.90;;;;;;;26.49;55.91;99361.97;7275103;39;20284;31
2023/08/13 11:37:33;;;;;;;3.67;1.70;;;;;;;26.70;55.44;99353.53;7254465;40;21339;31
2023/08/13 11:48:13;;;;;;;3.12;1.85;;;;;;;26.97;55.14;99341.53;7224497;40;20295;31
2023/08/13 11:53:31;;;;;;;3.04;1.90;;;;;;;27.24;54.94;99333.88;7269307;40;20365;31
2023/08/13 12:04:08;;;;;;;2.00;1.60;;;;;;;27.07;55.36;99306.44;7292634;40;21323;31
2023/08/13 12:14:30;;;;;;;4.20;2.10;;;;;;;26.94;55.56;99309.69;7244526;40;21154;31
2023/08/13 12:25:06;;;;;;;2.45;1.73;;;;;;;27.08;54.98;99291.47;7275270;39;20401;31
2023/08/13 12:35:28;;;;;;;6.25;1.70;;;;;;;27.68;53.22;99287.22;7332214;39;20282;31
2023/08/13 12:41:00;;;;;;;2.80;1.70;;;;;;;27.91;53.42;99283.06;7333465;39;20271;31
2023/08/13 12:46:18;;;;;;;2.43;1.70;;;;;;;28.27;51.93;99283.87;7356755;39;20349;31
2023/08/13 12:51:49;;;;;;;5.22;2.00;;;;;;;28.47;51.38;99273.59;7378104;39;20272;31
2023/08/13 12:57:23;;;;;;;2.78;1.80;;;;;;;28.28;52.92;99268.91;7258019;39;20336;31
2023/08/13 13:02:43;;;;;;;2.62;1.75;;;;;;;28.15;52.87;99270.31;7231388;40;20304;31
2023/08/13 13:08:18;;;;;;;3.35;1.85;;;;;;;28.26;52.05;99255.31;7278186;40;20425;31
2023/08/13 13:13:48;;;;;;;2.97;1.70;;;;;;;28.67;51.88;99256.03;7232950;40;20284;31
2023/08/13 13:19:20;;;;;;;2.28;1.80;;;;;;;28.28;53.01;99249.50;7243237;40;20321;31
2023/08/13 13:24:41;;;;;;;4.10;1.70;;;;;;;28.14;53.08;99252.00;7202668;40;20364;31
2023/08/13 13:30:14;;;;;;;3.30;1.65;;;;;;;28.23;52.44;99255.88;7201054;40;20530;31
2023/08/13 13:35:58;;;;;;;3.08;1.80;;;;;;;28.04;53.07;99255.59;7211212;40;20281;31
2023/08/13 13:46:35;;;;;;;1.87;1.50;;;;;;;28.45;52.63;99242.50;7193799;40;21237;31
2023/08/13 13:57:11;;;;;;;2.43;1.60;;;;;;;28.96;52.64;99228.47;7244822;39;21211;31
2023/08/13 14:07:48;;;;;;;2.92;1.62;;;;;;;28.67;52.64;99217.19;7283973;39;21238;31
2023/08/13 14:18:09;;;;;;;4.07;1.77;;;;;;;28.92;52.41;99210.69;7291888;39;20485;31
2023/08/13 14:28:46;;;;;;;2.72;1.60;;;;;;;28.70;51.65;99222.19;7290346;39;21156;31
2023/08/13 14:39:07;;;;;;;3.28;2.12;;;;;;;28.32;53.38;99214.53;7286204;40;21203;31
2023/08/13 14:49:46;;;;;;;4.60;1.75;;;;;;;28.07;53.26;99207.94;7287461;39;20305;31
2023/08/13 15:00:08;;;;;;;2.87;1.80;;;;;;;27.92;54.10;99194.09;7296205;40;21522;31
2023/08/13 15:05:42;;;;;;;3.55;1.70;;;;;;;27.98;54.42;99192.16;7252875;40;20366;31
2023/08/13 15:16:03;;;;;;;3.07;1.67;;;;;;;28.19;54.33;99194.63;7270147;40;21204;31
2023/08/13 15:26:41;;;;;;;2.80;1.85;;;;;;;28.09;55.50;99188.22;7303054;39;20264;31
2023/08/13 15:37:02;;;;;;;4.30;2.10;;;;;;;27.87;56.32;99185.78;7323656;39;21216;31
2023/08/13 15:42:35;;;;;;;4.50;1.70;;;;;;;27.72;56.31;99183.03;7271963;40;20278;31
2023/08/13 15:53:14;;;;;;;3.46;1.70;;;;;;;27.72;56.21;99183.88;7232163;40;20277;31
2023/08/13 15:58:48;;;;;;;3.20;1.92;;;;;;;27.63;57.52;99181.94;7250725;40;20264;31
2023/08/13 16:04:18;;;;;;;3.10;2.00;;;;;;;27.42;58.81;99171.94;7285198;39;21108;31
2023/08/13 16:09:36;;;;;;;3.08;2.10;;;;;;;27.40;59.91;99175.00;7314542;39;20279;31
2023/08/13 16:15:13;;;;;;;3.50;1.90;;;;;;;27.53;59.69;99176.41;7266160;40;20261;31
2023/08/13 16:20:48;;;;;;;3.83;2.17;;;;;;;27.37;59.82;99174.72;7292698;39;20256;31
2023/08/13 16:26:20;;;;;;;5.07;2.30;;;;;;;27.26;60.80;99168.31;7270384;40;20268;31
2023/08/13 16:31:56;;;;;;;4.45;2.12;;;;;;;27.28;61.38;99163.37;7256109;40;20246;31
2023/08/13 16:37:28;;;;;;;3.17;2.20;;;;;;;27.24;60.79;99160.31;7242078;40;22300;31
2023/08/13 16:42:48;;;;;;;2.90;2.10;;;;;;;27.15;60.88;99150.06;7214467;40;20257;31
2023/08/13 16:48:22;;;;;;;5.70;2.20;;;;;;;27.08;63.16;99149.50;7203118;40;20435;31
2023/08/13 16:53:42;;;;;;;3.55;2.40;;;;;;;27.05;62.02;99147.28;7263137;40;20279;31
2023/08/13 16:58:59;;;;;;;5.00;2.15;;;;;;;26.92;63.40;99145.88;7213623;40;20250;31
2023/08/13 17:04:35;;;;;;;2.80;1.80;;;;;;;26.79;63.72;99152.75;7249021;40;20251;31
2023/08/13 17:09:55;;;;;;;3.33;1.90;;;;;;;26.75;64.15;99143.34;7274221;39;20593;31
2023/08/13 17:20:35;;;;;;;3.70;2.30;;;;;;;26.84;64.00;99143.62;7298751;39;20265;31
2023/08/13 17:30:59;;;;;;;3.97;1.90;;;;;;;26.73;64.24;99141.94;7274081;40;21344;31
2023/08/13 17:36:32;;;;;;;6.43;2.17;;;;;;;26.63;63.37;99148.28;7230328;40;21244;31
2023/08/13 17:41:49;;;;;;;3.78;2.00;;;;;;;26.67;63.46;99143.88;7261408;40;20287;31
2023/08/13 17:52:27;;;;;;;3.30;1.98;;;;;;;26.52;63.08;99141.03;7300251;39;21092;31
2023/08/13 17:57:59;;;;;;;3.15;2.00;;;;;;;26.43;63.88;99137.97;7215027;40;20261;31
2023/08/13 18:03:17;;;;;;;3.28;1.92;;;;;;;26.45;63.58;99140.47;7042734;40;20250;31
2023/08/13 18:08:52;;;;;;;3.45;1.98;;;;;;;26.44;63.35;99133.28;7215149;40;20265;31
2023/08/13 18:14:24;;;;;;;3.15;1.90;;;;;;;26.40;63.90;99132.16;7195464;40;20269;31
2023/08/13 18:19:42;;;;;;;2.73;1.97;;;;;;;26.40;64.92;99133.00;7207092;40;21306;31
2023/08/13 18:25:15;;;;;;;2.35;1.80;;;;;;;26.33;65.34;99129.63;7218242;40;20282;31
2023/08/13 18:30:33;;;;;;;3.55;2.15;;;;;;;26.25;66.25;99126.56;7216728;40;20484;31
2023/08/13 18:36:06;;;;;;;2.63;1.80;;;;;;;26.11;66.42;99133.69;7200210;40;21078;31
2023/08/13 18:41:38;;;;;;;2.30;1.90;;;;;;;25.98;67.05;99132.19;7190083;40;21239;31
2023/08/13 18:46:56;;;;;;;2.95;2.10;;;;;;;25.82;68.46;99152.56;7209600;40;20267;31
2023/08/13 18:52:16;;;;;;;3.42;2.00;;;;;;;25.62;69.66;99145.00;7146919;40;21270;31
2023/08/13 18:57:47;;;;;;;3.75;2.05;;;;;;;25.49;70.39;99145.41;7209978;40;20320;31
2023/08/13 19:03:22;;;;;;;5.32;1.90;;;;;;;25.39;69.53;99142.56;7203106;40;20277;31
2023/08/13 19:08:58;;;;;;;4.62;2.20;;;;;;;25.27;70.60;99147.44;7255878;40;20346;31
2023/08/13 19:14:30;;;;;;;3.87;2.23;;;;;;;25.15;71.22;99153.13;7259416;40;20279;31
2023/08/13 19:20:04;;;;;;;4.05;2.00;;;;;;;25.04;71.60;99170.69;7225321;40;20254;31
2023/08/13 19:25:39;;;;;;;6.50;2.90;;;;;;;24.91;70.90;99162.81;7183265;40;20247;31
2023/08/13 19:31:13;;;;;;;3.95;2.65;;;;;;;24.80;72.31;99178.37;7153304;40;20585;31
2023/08/13 19:36:45;;;;;;;4.75;2.00;;;;;;;24.76;71.08;99170.91;7224475;40;20281;31
2023/08/13 19:42:19;;;;;;;2.70;2.40;;;;;;;24.64;71.24;99163.63;7211310;40;20261;31
2023/08/13 19:47:56;;;;;;;4.70;2.10;;;;;;;24.50;72.47;99161.50;7200934;40;20261;31
2023/08/13 19:53:31;;;;;;;4.90;2.47;;;;;;;24.31;73.55;99169.25;7183356;40;20262;31
2023/08/13 19:59:06;;;;;;;2.28;2.00;;;;;;;24.22;73.35;99173.59;7165796;40;20325;31
2023/08/13 20:04:39;;;;;;;3.72;1.85;;;;;;;24.16;72.77;99182.84;7164197;40;20316;31
2023/08/13 20:10:14;;;;;;;3.60;2.10;;;;;;;24.11;73.67;99186.34;7250509;40;20281;31
2023/08/13 20:20:51;;;;;;;6.00;2.20;;;;;;;23.94;73.10;99171.78;7227304;40;21224;31
2023/08/13 20:26:26;;;;;;;5.28;1.77;;;;;;;23.89;73.24;99173.62;7239497;40;20277;31
2023/08/13 20:32:02;;;;;;;5.87;2.07;;;;;;;23.75;73.39;99173.13;7234261;40;20312;31
2023/08/13 20:37:38;;;;;;;6.90;2.05;;;;;;;23.72;73.78;99171.75;7254269;40;20261;31
2023/08/13 20:43:13;;;;;;;2.50;1.90;;;;;;;23.65;73.87;99167.50;7247043;40;20449;31
2023/08/13 20:48:33;;;;;;;3.97;2.08;;;;;;;23.59;73.81;99179.50;7273428;40;20277;31
2023/08/13 20:59:14;;;;;;;4.33;2.20;;;;;;;23.20;75.78;99171.13;7261331;40;20264;31
2023/08/13 21:09:50;;;;;;;4.60;2.10;;;;;;;23.24;74.46;99171.47;7304014;39;21305;31
2023/08/13 21:20:30;;;;;;;4.65;1.87;;;;;;;23.08;75.46;99151.09;7302265;39;20322;31
2023/08/13 21:26:05;;;;;;;3.25;2.30;;;;;;;23.02;75.92;99149.38;7294691;40;20355;31
2023/08/13 21:36:42;;;;;;;3.30;2.20;;;;;;;22.69;76.48;99136.38;7214136;40;21106;31
2023/08/13 21:42:02;;;;;;;2.75;2.12;;;;;;;22.72;76.45;99159.81;7262645;39;20412;31
2023/08/13 21:47:37;;;;;;;3.10;2.20;;;;;;;22.72;76.64;99154.31;7259041;40;20245;31
2023/08/13 21:53:10;;;;;;;4.27;2.00;;;;;;;22.58;77.26;99155.66;7232016;40;20297;31
2023/08/13 22:03:31;;;;;;;2.92;2.00;;;;;;;22.70;76.23;99162.78;7214490;40;20269;31
2023/08/13 22:09:10;;;;;;;3.74;2.10;;;;;;;22.68;76.54;99162.19;7315901;39;20256;31
2023/08/13 22:14:42;;;;;;;4.32;1.83;;;;;;;22.66;77.24;99152.50;7242560;40;21246;31
2023/08/13 22:20:19;;;;;;;3.05;2.10;;;;;;;22.60;76.38;99165.31;7216199;40;20258;31
2023/08/13 22:25:54;;;;;;;1.90;1.70;;;;;;;22.48;77.98;99154.37;7217131;40;20493;31
2023/08/13 22:31:28;;;;;;;3.17;1.92;;;;;;;22.51;78.07;99157.72;7193491;40;20568;31
2023/08/13 22:36:48;;;;;;;4.15;2.20;;;;;;;22.53;77.49;99161.88;7244953;40;20253;31
2023/08/13 22:42:24;;;;;;;2.70;1.80;;;;;;;22.48;77.56;99159.88;7251158;40;20251;31
2023/08/13 22:47:45;;;;;;;3.15;1.80;;;;;;;22.51;77.21;99165.97;7269760;40;20256;31
2023/08/13 22:53:19;;;;;;;3.03;1.90;;;;;;;22.56;78.00;99168.78;7271864;40;20310;31
2023/08/13 22:58:55;;;;;;;2.55;2.00;;;;;;;22.68;77.26;99186.94;7234884;40;20258;31
2023/08/13 23:04:15;;;;;;;2.40;1.80;;;;;;;22.81;76.73;99183.91;7231214;40;20265;31
2023/08/13 23:09:50;;;;;;;3.90;1.75;;;;;;;22.79;76.57;99166.81;7257474;40;20334;31
2023/08/13 23:15:26;;;;;;;4.35;1.80;;;;;;;22.74;78.78;99166.72;7263359;39;20427;31
2023/08/13 23:20:47;;;;;;;3.10;1.95;;;;;;;22.66;79.09;99160.75;7252301;39;20271;31
2023/08/13 23:26:07;;;;;;;3.00;1.95;;;;;;;22.65;79.23;99146.19;7275237;40;20318;31
2023/08/13 23:31:43;;;;;;;3.03;1.95;;;;;;;22.69;78.57;99143.75;7296784;40;20322;31
2023/08/13 23:37:03;;;;;;;2.85;2.10;;;;;;;22.68;78.00;99131.97;7276520;40;20237;31
2023/08/13 23:42:24;;;;;;;4.15;2.10;;;;;;;22.82;78.28;99118.75;7311930;39;20344;31
2023/08/13 23:48:00;;;;;;;2.97;2.10;;;;;;;22.61;80.54;99120.25;7266585;40;20255;31
2023/08/13 23:53:35;;;;;;;4.93;1.80;;;;;;;22.59;80.22;99116.13;7212689;40;20250;31
2023/08/13 23:59:07;;;;;;;3.27;2.20;;;;;;;22.69;79.01;99102.53;7193778;40;20296;31
